Time;durP1;ratioP1;P1;durP2;ratioP2;P2;SDS_P1;SDS_P2;PMS_P1;PMS_P2;Temp;Humidity;BMP_temperature;BMP_pressure;BME280_temperature;BME280_humidity;BME280_pressure;Samples;Min_cycle;Max_cycle;Signal;HPM_P1;HPM_P2
2023/02/21 02:15:11;;;;;;;;;68.75;55.00;;;;;7.12;74.60;101290.88;5077346;27;45331;-77
2023/02/21 02:17:59;;;;;;;;;65.00;53.25;;;;;7.15;74.47;101297.81;5076976;28;45480;-77
2023/02/21 02:20:37;;;;;;;;;64.50;53.25;;;;;7.15;74.27;101296.06;5076798;27;45464;-76
2023/02/21 02:23:18;;;;;;;;;65.50;53.00;;;;;7.13;74.32;101295.22;5076691;27;47122;-77
2023/02/21 02:25:49;;;;;;;;;67.00;54.00;;;;;7.12;74.32;101290.88;5078474;27;45439;-76
2023/02/21 02:28:14;;;;;;;;;64.25;53.25;;;;;7.11;74.30;101283.91;5059179;28;45415;-70
2023/02/21 02:31:21;;;;;;;;;69.25;56.25;;;;;7.09;74.83;101280.44;5077303;27;45540;-74
2023/02/21 02:34:28;;;;;;;;;68.67;56.67;;;;;7.08;74.03;101273.50;5055332;27;46298;-75
2023/02/21 02:37:22;;;;;;;;;68.33;55.00;;;;;7.06;73.97;101269.19;5076435;28;45314;-75
2023/02/21 02:39:54;;;;;;;;;70.67;58.00;;;;;7.04;74.26;101263.97;5062274;27;45302;-71
2023/02/21 02:42:34;;;;;;;;;68.25;56.50;;;;;7.02;74.77;101263.13;5078918;28;45320;-74
2023/02/21 02:45:12;;;;;;;;;67.33;55.67;;;;;7.03;74.22;101264.00;5079281;28;45430;-75
2023/02/21 02:47:42;;;;;;;;;64.25;53.75;;;;;6.97;74.50;101255.34;5077222;27;45443;-72
2023/02/21 02:50:09;;;;;;;;;69.75;56.25;;;;;6.95;74.89;101248.41;5076037;28;45420;-76
2023/02/21 02:52:35;;;;;;;;;69.75;56.00;;;;;6.92;74.60;101251.06;5076359;28;45559;-78
2023/02/21 02:55:19;;;;;;;;;65.00;54.25;;;;;6.98;74.41;101258.81;5074782;28;46131;-72
2023/02/21 02:57:47;;;;;;;;;62.25;52.00;;;;;6.95;75.31;101251.00;5076059;28;45356;-74
2023/02/21 03:00:14;;;;;;;;;67.25;54.50;;;;;6.96;74.35;101252.75;5076036;27;45260;-77
2023/02/21 03:03:02;;;;;;;;;65.75;53.50;;;;;6.94;74.93;101257.13;5076295;28;45399;-73
2023/02/21 03:05:54;;;;;;;;;70.25;55.50;;;;;6.93;74.48;101252.78;5075903;28;45770;-78
2023/02/21 03:08:35;;;;;;;;;70.67;58.00;;;;;6.88;75.00;101245.00;5074050;28;45214;-75
2023/02/21 03:11:17;;;;;;;;;65.75;54.75;;;;;6.90;75.27;101248.47;5076430;28;45413;-77
2023/02/21 03:13:52;;;;;;;;;66.00;54.00;;;;;6.89;75.07;101243.25;5076283;27;45378;-77
2023/02/21 03:16:38;;;;;;;;;70.00;56.75;;;;;6.87;74.82;101241.53;5075843;28;45567;-70
2023/02/21 03:19:11;;;;;;;;;68.75;55.00;;;;;6.86;74.65;101242.41;5075612;28;45459;-75
2023/02/21 03:21:48;;;;;;;;;65.50;53.50;;;;;6.86;75.24;101238.91;5075873;28;45346;-72
2023/02/21 03:24:16;;;;;;;;;67.50;55.00;;;;;6.82;75.04;101227.66;5075983;28;45425;-72
2023/02/21 03:26:46;;;;;;;;;55.00;46.25;;;;;6.84;74.78;101232.84;5075798;28;45291;-71
2023/02/21 03:29:12;;;;;;;;;68.25;54.25;;;;;6.82;75.43;101234.63;5075748;28;45474;-71
2023/02/21 03:31:43;;;;;;;;;64.67;54.00;;;;;6.82;75.32;101238.13;5057346;28;45466;-73
2023/02/21 03:34:08;;;;;;;;;68.75;56.50;;;;;6.81;75.99;101232.88;5075503;28;45167;-71
2023/02/21 03:36:36;;;;;;;;;72.33;58.00;;;;;6.83;75.53;101237.22;5075404;27;46281;-70
2023/02/21 03:39:02;;;;;;;;;69.75;55.00;;;;;6.83;74.46;101231.13;5074984;28;45468;-71
2023/02/21 03:41:27;;;;;;;;;64.00;53.25;;;;;6.82;75.67;101229.38;5075404;28;45366;-70
2023/02/21 03:43:53;;;;;;;;;67.25;54.75;;;;;6.72;75.78;101219.06;5075917;27;45465;-70
2023/02/21 03:46:18;;;;;;;;;68.33;55.33;;;;;6.78;75.00;101233.81;5075430;28;47004;-72
2023/02/21 03:48:44;;;;;;;;;68.67;55.00;;;;;6.71;75.46;101216.47;5057231;28;45322;-70
2023/02/21 03:51:09;;;;;;;;;67.00;55.50;;;;;6.77;74.73;101225.97;5075295;27;45425;-71
2023/02/21 03:53:34;;;;;;;;;74.33;59.33;;;;;6.70;75.80;101220.81;5075510;28;45655;-70
2023/02/21 03:56:00;;;;;;;;;67.00;55.33;;;;;6.76;75.42;101232.09;5075040;27;46158;-71
2023/02/21 03:58:25;;;;;;;;;68.33;56.67;;;;;6.69;75.58;101213.03;5075152;27;45921;-71
2023/02/21 04:00:51;;;;;;;;;70.33;57.00;;;;;6.66;75.56;101207.84;5075704;27;45456;-73
2023/02/21 04:03:17;;;;;;;;;67.50;53.50;;;;;6.68;74.64;101212.16;5075568;27;45227;-77
2023/02/21 04:05:42;;;;;;;;;45.67;39.67;;;;;6.68;74.93;101212.16;5075436;28;45381;-74
2023/02/21 04:08:09;;;;;;;;;65.33;54.33;;;;;6.66;74.80;101208.69;5061759;28;45517;-74
2023/02/21 04:10:34;;;;;;;;;73.33;57.33;;;;;6.53;75.64;101189.72;5084001;28;45326;-76
2023/02/21 04:12:59;;;;;;;;;68.67;56.00;;;;;6.62;75.04;101207.00;5080227;27;45354;-70
2023/02/21 04:15:25;;;;;;;;;70.33;57.00;;;;;6.60;75.30;101200.09;5079731;27;46141;-71
2023/02/21 04:17:50;;;;;;;;;68.00;56.00;;;;;6.57;76.16;101194.00;5079240;28;45323;-71
2023/02/21 04:20:15;;;;;;;;;70.67;57.33;;;;;6.58;75.14;101200.97;5078631;27;45242;-71
2023/02/21 04:22:41;;;;;;;;;70.00;56.00;;;;;6.46;75.08;101185.44;5078644;28;45667;-71
2023/02/21 04:25:06;;;;;;;;;72.67;59.33;;;;;6.51;75.67;101204.56;5077988;28;52754;-70
2023/02/21 04:27:33;;;;;;;;;72.33;58.00;;;;;6.50;75.16;101204.56;5059951;28;45377;-77
2023/02/21 04:29:59;;;;;;;;;66.00;54.00;;;;;6.48;75.83;101207.19;5078538;27;45351;-73
2023/02/21 04:32:24;;;;;;;;;73.67;59.67;;;;;6.46;75.63;101208.97;5079005;28;45519;-70
2023/02/21 04:34:49;;;;;;;;;70.00;56.67;;;;;6.36;75.76;101204.72;5078945;27;46253;-70
2023/02/21 04:37:15;;;;;;;;;77.00;62.00;;;;;6.42;74.73;101209.91;5060131;28;45333;-70
2023/02/21 04:39:40;;;;;;;;;78.67;63.33;;;;;6.44;75.14;101221.19;5078385;28;45375;-73
2023/02/21 04:42:05;;;;;;;;;75.00;59.33;;;;;6.40;75.64;101206.44;5078254;28;45323;-71
2023/02/21 04:44:31;;;;;;;;;78.33;63.00;;;;;6.38;75.47;101202.97;5077886;27;53672;-70
2023/02/21 04:46:56;;;;;;;;;76.00;61.00;;;;;6.40;75.35;101203.81;5078463;27;45306;-70
2023/02/21 04:49:24;;;;;;;;;77.00;63.33;;;;;6.43;75.27;101198.56;5078215;27;45387;-72
2023/02/21 04:51:50;;;;;;;;;72.67;59.33;;;;;6.43;75.95;101211.63;5078246;28;45246;-76
2023/02/21 04:54:16;;;;;;;;;77.00;64.33;;;;;6.42;75.05;101207.28;5078171;27;45373;-77
2023/02/21 04:56:41;;;;;;;;;78.67;67.33;;;;;6.36;75.55;101197.75;5059664;28;45520;-76
2023/02/21 04:59:07;;;;;;;;;78.00;63.33;;;;;6.42;75.64;101210.75;5059780;27;45391;-75
2023/02/21 05:01:32;;;;;;;;;72.67;58.67;;;;;6.42;75.81;101207.28;5079167;28;45306;-76
2023/02/21 05:03:58;;;;;;;;;78.33;67.00;;;;;6.42;75.61;101208.13;5078943;27;45408;-74
2023/02/21 05:06:25;;;;;;;;;75.00;61.33;;;;;6.41;75.77;101208.16;5079334;27;45299;-72
2023/02/21 05:08:51;;;;;;;;;75.33;63.00;;;;;6.41;75.34;101210.78;5079318;28;45393;-71
2023/02/21 05:11:18;;;;;;;;;73.33;58.67;;;;;6.43;76.02;101215.09;5060611;28;45497;-75
2023/02/21 05:13:44;;;;;;;;;71.67;58.67;;;;;6.42;76.14;101207.28;5077960;28;46668;-71
2023/02/21 05:16:09;;;;;;;;;70.67;57.67;;;;;6.44;75.95;101218.59;5078908;27;45377;-71
2023/02/21 05:18:37;;;;;;;;;75.33;59.67;;;;;6.45;76.07;101209.84;5078262;27;45810;-74
2023/02/21 05:21:02;;;;;;;;;70.33;55.67;;;;;6.48;75.99;101212.44;5078845;28;45393;-71
2023/02/21 05:23:34;;;;;;;;;69.33;57.33;;;;;6.50;75.96;101215.88;5078580;28;45330;-71
2023/02/21 05:26:12;;;;;;;;;69.50;56.00;;;;;6.53;76.41;101213.22;5078213;27;45387;-70
2023/02/21 05:28:39;;;;;;;;;70.33;57.00;;;;;6.55;76.17;101210.59;5078644;28;45476;-73
2023/02/21 05:31:05;;;;;;;;;70.50;57.00;;;;;6.56;76.78;101207.97;5078401;27;45345;-72
2023/02/21 05:33:31;;;;;;;;;71.50;57.50;;;;;6.58;76.71;101206.19;5077603;27;46294;-73
2023/02/21 05:35:57;;;;;;;;;68.75;56.50;;;;;6.54;76.25;101199.28;5078155;28;45279;-74
2023/02/21 05:38:23;;;;;;;;;68.50;56.00;;;;;6.63;77.82;101205.25;5077645;27;45255;-74
2023/02/21 05:40:49;;;;;;;;;69.50;56.25;;;;;6.55;77.13;101184.44;5077907;27;45173;-76
2023/02/21 05:43:14;;;;;;;;;68.50;55.75;;;;;6.56;77.01;101173.97;5059233;28;45426;-76
2023/02/21 05:45:40;;;;;;;;;63.75;51.25;;;;;6.58;77.06;101180.06;5077601;28;45690;-77
2023/02/21 05:48:06;;;;;;;;;70.00;56.00;;;;;6.62;76.54;101187.84;5078776;27;45359;-77
2023/02/21 05:50:31;;;;;;;;;62.75;52.75;;;;;6.67;76.84;101184.28;5064236;28;45536;-76
2023/02/21 05:52:58;;;;;;;;;68.75;55.00;;;;;6.68;77.18;101177.31;5085534;27;45464;-75
2023/02/21 05:55:23;;;;;;;;;67.00;53.25;;;;;6.66;78.05;101171.25;5081088;27;45469;-77
2023/02/21 05:57:48;;;;;;;;;66.75;55.00;;;;;6.67;77.02;101173.81;5059021;28;45347;-77
2023/02/21 06:00:19;;;;;;;;;67.25;54.50;;;;;6.70;77.38;101175.53;5077872;27;45340;-78
2023/02/21 06:02:45;;;;;;;;;64.75;53.25;;;;;6.70;76.49;101167.69;5077326;28;46730;-76
2023/02/21 06:05:11;;;;;;;;;65.00;53.50;;;;;6.71;77.26;101170.25;5077205;28;45203;-75
2023/02/21 06:07:36;;;;;;;;;64.00;52.00;;;;;6.67;76.95;101160.75;5077266;27;45431;-73
2023/02/21 06:10:02;;;;;;;;;60.00;49.50;;;;;6.72;77.22;101165.91;5076800;27;48024;-72
2023/02/21 06:12:28;;;;;;;;;63.75;53.00;;;;;6.70;76.59;101171.16;5077071;27;46108;-76
2023/02/21 06:14:53;;;;;;;;;68.00;54.00;;;;;6.71;77.41;101164.19;5076991;28;45319;-73
2023/02/21 06:17:19;;;;;;;;;65.50;54.00;;;;;6.66;76.42;101152.94;5077088;28;45348;-74
2023/02/21 06:19:44;;;;;;;;;62.50;51.50;;;;;6.70;76.92;101162.47;5077358;28;45536;-77
2023/02/21 06:22:09;;;;;;;;;67.25;53.50;;;;;6.67;77.36;101152.06;5077852;28;46147;-71
2023/02/21 06:24:35;;;;;;;;;66.00;52.75;;;;;6.63;77.13;101150.38;5084663;27;46384;-73
2023/02/21 06:27:00;;;;;;;;;70.50;57.75;;;;;6.67;76.64;101159.88;5046400;28;45423;-77
2023/02/21 06:29:26;;;;;;;;;65.25;54.25;;;;;6.69;76.54;101160.72;5077075;28;45686;-71
2023/02/21 06:31:59;;;;;;;;;67.25;53.75;;;;;6.67;76.15;101145.06;5076706;28;45679;-71
2023/02/21 06:34:25;;;;;;;;;68.50;55.75;;;;;6.65;76.95;101143.38;5076690;27;45512;-73
2023/02/21 06:36:52;;;;;;;;;67.50;54.75;;;;;6.69;77.42;101145.03;5059804;28;45376;-71
2023/02/21 06:39:18;;;;;;;;;67.00;54.00;;;;;6.70;76.44;101146.78;5077420;27;45652;-76
2023/02/21 06:41:43;;;;;;;;;66.00;54.25;;;;;6.70;76.49;101141.53;5077284;28;52151;-79
2023/02/21 06:44:08;;;;;;;;;64.00;52.50;;;;;6.61;76.33;101126.84;5076669;28;45357;-78
2023/02/21 06:46:36;;;;;;;;;67.00;54.00;;;;;6.68;76.84;101141.56;5076633;27;45177;-72
2023/02/21 06:49:02;;;;;;;;;66.00;54.00;;;;;6.67;77.01;101131.13;5076597;27;45522;-70
2023/02/21 06:51:32;;;;;;;;;71.00;57.00;;;;;6.68;76.55;101135.47;5076117;27;45925;-76
2023/02/21 06:53:59;;;;;;;;;70.50;57.75;;;;;6.68;77.65;101132.88;5057747;28;45272;-70
2023/02/21 06:56:24;;;;;;;;;64.25;52.75;;;;;6.68;76.76;101132.88;5076667;27;45233;-71
2023/02/21 06:58:49;;;;;;;;;71.50;56.00;;;;;6.70;77.05;101136.31;5078598;28;45463;-70
2023/02/21 07:01:15;;;;;;;;;72.50;57.25;;;;;6.71;77.13;101127.59;5081116;28;54560;-72
2023/02/21 07:03:42;;;;;;;;;68.75;55.75;;;;;6.71;76.81;101119.75;5078865;28;45243;-71
2023/02/21 07:06:07;;;;;;;;;69.25;55.50;;;;;6.74;77.02;101124.91;5084618;28;45268;-75
2023/02/21 07:08:33;;;;;;;;;68.50;55.25;;;;;6.76;76.79;101120.53;5070011;28;45583;-71
2023/02/21 07:10:58;;;;;;;;;74.00;59.67;;;;;6.77;75.84;101129.22;5086120;27;45966;-76
2023/02/21 07:13:23;;;;;;;;;68.25;56.00;;;;;6.77;76.54;101130.09;5082845;28;45270;-78
2023/02/21 07:15:49;;;;;;;;;66.00;53.25;;;;;6.74;76.26;101111.84;5078803;28;45318;-70
2023/02/21 07:18:14;;;;;;;;;68.25;55.00;;;;;6.76;75.94;101123.16;5078223;28;45444;-73
2023/02/21 07:20:39;;;;;;;;;68.75;54.50;;;;;6.80;77.28;101130.06;5078181;27;46660;-69
2023/02/21 07:23:05;;;;;;;;;70.75;57.00;;;;;6.82;76.93;101125.66;5078743;28;45483;-77
2023/02/21 07:25:30;;;;;;;;;68.00;55.00;;;;;6.84;76.46;101128.25;5076747;28;45404;-70
2023/02/21 07:27:55;;;;;;;;;76.33;58.00;;;;;6.88;77.10;101124.69;5076184;28;45502;-72
2023/02/21 07:30:21;;;;;;;;;70.50;56.75;;;;;6.90;77.17;101127.28;5075760;28;45440;-70
2023/02/21 07:32:46;;;;;;;;;106.00;93.25;;;;;6.90;76.35;101122.94;5057577;28;45445;-71
2023/02/21 07:35:12;;;;;;;;;71.33;57.00;;;;;6.91;77.27;101127.28;5076560;28;45334;-75
2023/02/21 07:37:37;;;;;;;;;71.67;58.33;;;;;6.95;76.68;101123.72;5062117;27;45661;-76
2023/02/21 07:40:05;;;;;;;;;73.00;59.00;;;;;6.98;76.85;101123.69;5082059;28;46149;-79
2023/02/21 07:42:31;;;;;;;;;65.75;53.75;;;;;7.01;76.44;101126.25;5078925;27;45326;-77
2023/02/21 07:44:57;;;;;;;;;70.33;57.33;;;;;7.06;76.46;101130.53;5079879;28;45435;-74
2023/02/21 07:47:26;;;;;;;;;68.33;56.67;;;;;7.08;76.37;101129.59;5079818;27;45638;-72
2023/02/21 07:49:53;;;;;;;;;69.50;56.50;;;;;7.12;76.28;101123.44;5060467;28;46183;-73
2023/02/21 07:52:19;;;;;;;;;70.50;56.50;;;;;7.13;75.76;101122.53;5060877;28;45345;-77
2023/02/21 07:54:45;;;;;;;;;70.25;57.50;;;;;7.15;75.27;101118.13;5060936;28;45303;-74
2023/02/21 07:57:10;;;;;;;;;66.50;52.50;;;;;7.10;75.04;101106.03;5078897;27;45533;-73
2023/02/21 07:59:35;;;;;;;;;65.50;54.25;;;;;7.13;75.23;101112.06;5078931;27;45398;-79
2023/02/21 08:02:01;;;;;;;;;69.00;55.75;;;;;7.18;75.83;101116.38;5079114;28;45244;-76
2023/02/21 08:04:26;;;;;;;;;66.00;53.75;;;;;7.20;75.84;101114.59;5078604;28;45471;-72
2023/02/21 08:06:59;;;;;;;;;62.50;51.75;;;;;7.23;75.36;101117.13;5078848;27;45572;-72
2023/02/21 08:09:24;;;;;;;;;70.50;57.00;;;;;7.26;74.86;101117.09;5081816;27;46206;-75
2023/02/21 08:11:50;;;;;;;;;65.50;53.75;;;;;7.28;75.30;101107.47;5078354;27;48837;-71
2023/02/21 08:14:15;;;;;;;;;70.00;55.75;;;;;7.27;75.19;101096.13;5077625;27;45326;-73
2023/02/21 08:16:41;;;;;;;;;66.50;54.50;;;;;7.33;75.42;101103.00;5076681;27;45189;-76
2023/02/21 08:19:08;;;;;;;;;73.25;60.25;;;;;7.33;75.27;101103.00;5059448;28;51922;-77
2023/02/21 08:21:33;;;;;;;;;68.00;55.75;;;;;7.25;75.07;101083.97;5078258;27;45433;-73
2023/02/21 08:23:58;;;;;;;;;72.00;57.33;;;;;7.41;74.77;101108.94;5076952;27;45287;-77
2023/02/21 08:26:24;;;;;;;;;75.00;61.67;;;;;7.25;74.65;101076.13;5075212;27;46206;-78
2023/02/21 08:28:49;;;;;;;;;67.75;54.50;;;;;7.50;74.41;101114.94;5077799;27;46287;-77
2023/02/21 08:31:15;;;;;;;;;67.67;56.33;;;;;7.49;74.61;101100.97;5063325;27;45453;-74
2023/02/21 08:33:40;;;;;;;;;68.67;56.00;;;;;7.56;74.42;101106.97;5058806;27;45367;-68
2023/02/21 08:36:06;;;;;;;;;68.75;56.00;;;;;7.61;74.52;101105.13;5067744;27;45913;-68
2023/02/21 08:38:31;;;;;;;;;68.33;55.00;;;;;7.63;74.15;101099.84;5074077;27;45520;-72
2023/02/21 08:40:56;;;;;;;;;71.67;57.33;;;;;7.68;73.78;101105.84;5073961;27;45508;-71
2023/02/21 08:43:24;;;;;;;;;65.50;52.00;;;;;7.58;73.67;101076.38;5078471;28;45577;-73
2023/02/21 08:45:49;;;;;;;;;67.25;55.00;;;;;7.74;74.12;101100.50;5077364;27;45490;-72
2023/02/21 08:48:15;;;;;;;;;68.25;55.25;;;;;7.78;74.35;101099.53;5077746;27;46460;-74
2023/02/21 08:50:40;;;;;;;;;65.75;54.00;;;;;7.86;73.99;101104.63;5077502;28;45376;-69
2023/02/21 08:53:05;;;;;;;;;68.50;55.25;;;;;7.89;74.26;101104.56;5056502;28;45658;-75
2023/02/21 08:55:31;;;;;;;;;70.00;56.67;;;;;7.88;74.50;101098.44;5078775;28;45578;-72
2023/02/21 08:57:56;;;;;;;;;68.33;55.00;;;;;7.89;74.10;101087.06;5077609;28;49766;-74
2023/02/21 09:00:23;;;;;;;;;69.50;57.00;;;;;8.03;73.20;101105.13;5078737;28;45841;-72
2023/02/21 09:02:52;;;;;;;;;69.67;57.33;;;;;8.09;73.84;101108.53;5079197;27;45479;-74
2023/02/21 09:05:23;;;;;;;;;70.33;56.00;;;;;8.13;73.18;101102.31;5080203;27;45189;-71
2023/02/21 09:07:49;;;;;;;;;66.67;55.00;;;;;8.17;73.48;101102.22;5077946;27;45413;-76
2023/02/21 09:10:16;;;;;;;;;72.75;58.00;;;;;8.23;73.08;101100.38;5077748;27;45441;-75
2023/02/21 09:12:42;;;;;;;;;67.00;54.67;;;;;8.25;73.13;101101.19;5077575;28;45331;-72
2023/02/21 09:15:07;;;;;;;;;66.33;54.67;;;;;8.32;73.32;101108.88;5059918;28;45447;-72
2023/02/21 09:17:33;;;;;;;;;65.25;54.00;;;;;8.37;73.41;101105.28;5077549;28;46202;-74
2023/02/21 09:20:07;;;;;;;;;62.75;51.00;;;;;8.38;73.64;101102.66;5060221;28;45321;-74
2023/02/21 09:22:33;;;;;;;;;72.67;59.67;;;;;8.48;73.53;101104.16;5084988;28;45415;-72
2023/02/21 09:24:59;;;;;;;;;59.50;50.25;;;;;8.55;73.43;101117.16;5082020;28;45225;-74
2023/02/21 09:27:35;;;;;;;;;69.75;57.25;;;;;8.60;72.71;101100.44;5078576;28;45914;-73
2023/02/21 09:30:14;;;;;;;;;68.25;54.00;;;;;8.69;72.80;101111.59;5078520;27;45506;-75
2023/02/21 09:32:40;;;;;;;;;65.75;53.25;;;;;8.57;72.67;101070.78;5078480;28;45433;-75
2023/02/21 09:35:07;;;;;;;;;60.50;49.75;;;;;8.75;72.71;101090.47;5078017;28;45438;-76
2023/02/21 09:37:36;;;;;;;;;56.75;48.25;;;;;8.89;72.69;101103.22;5078574;28;46678;-77
2023/02/21 09:40:03;;;;;;;;;56.25;46.50;;;;;8.94;72.52;101092.63;5078692;27;46087;-70
2023/02/21 09:42:31;;;;;;;;;52.25;44.75;;;;;8.99;72.39;101093.38;5079357;27;45399;-73
2023/02/21 09:44:57;;;;;;;;;55.75;46.50;;;;;9.03;72.26;101088.03;5078734;28;45487;-75
2023/02/21 09:47:30;;;;;;;;;49.25;42.50;;;;;9.06;71.83;101090.56;5078116;28;45397;-76
2023/02/21 09:50:04;;;;;;;;;70.25;57.25;;;;;9.11;71.99;101089.59;5078579;27;45470;-72
2023/02/21 09:52:35;;;;;;;;;49.50;42.75;;;;;9.19;71.77;101087.63;5079050;28;45416;-73
2023/02/21 09:55:37;;;;;;;;;46.50;40.50;;;;;9.27;71.87;101080.41;5080577;27;45681;-69
2023/02/21 09:58:04;;;;;;;;;170.75;149.75;;;;;9.31;71.79;101079.44;5002636;28;46456;-71
2023/02/21 10:00:35;;;;;;;;;58.25;48.75;;;;;9.42;71.56;101087.00;5004905;28;45325;-76
2023/02/21 10:03:19;;;;;;;;;53.50;44.25;;;;;9.52;71.51;101086.75;4998535;28;45485;-70
2023/02/21 10:06:02;;;;;;;;;54.75;45.75;;;;;9.60;71.40;101084.78;5004416;28;45537;-77
2023/02/21 10:08:39;;;;;;;;;48.50;41.75;;;;;9.67;70.95;101082.84;5078125;28;45512;-76
2023/02/21 10:11:30;;;;;;;;;49.25;41.75;;;;;9.76;70.86;101083.44;5061050;28;45400;-76
2023/02/21 10:14:28;;;;;;;;;51.50;44.00;;;;;9.85;70.69;101086.72;5081390;27;45378;-79
2023/02/21 10:17:17;;;;;;;;;46.75;39.50;;;;;9.93;70.34;101088.19;5078203;28;45310;-77
2023/02/21 10:19:51;;;;;;;;;54.50;45.50;;;;;10.01;70.02;101080.09;5077816;28;47106;-76
2023/02/21 10:22:24;;;;;;;;;58.75;47.75;;;;;10.01;70.07;101063.44;5076714;27;45343;-77
2023/02/21 10:24:50;;;;;;;;;46.50;40.50;;;;;10.02;69.51;101068.69;5078157;28;45854;-70
2023/02/21 10:27:24;;;;;;;;;48.50;41.75;;;;;10.22;69.80;101088.22;5077583;28;45624;-74
2023/02/21 10:29:58;;;;;;;;;48.25;41.00;;;;;10.30;69.70;101088.84;5078813;28;45434;-70
2023/02/21 10:32:24;;;;;;;;;41.75;36.75;;;;;10.37;68.93;101087.75;5058417;28;45276;-69
2023/02/21 10:34:53;;;;;;;;;45.75;39.00;;;;;10.26;69.01;101053.06;5058222;28;45404;-73
2023/02/21 10:37:40;;;;;;;;;43.25;37.75;;;;;10.51;69.29;101090.00;5076432;27;45580;-77
2023/02/21 10:40:53;;;;;;;;;47.50;39.50;;;;;10.59;68.57;101079.22;5076587;28;46095;-75
2023/02/21 10:43:58;;;;;;;;;48.50;41.75;;;;;10.70;68.87;101072.78;5058733;28;45640;-74
2023/02/21 10:46:33;;;;;;;;;46.50;40.25;;;;;10.78;68.92;101071.59;5076466;28;45263;-70
2023/02/21 10:49:16;;;;;;;;;44.50;38.25;;;;;10.89;68.49;101067.72;5058966;28;45362;-78
2023/02/21 10:51:42;;;;;;;;;46.00;39.50;;;;;10.97;67.94;101063.06;5076632;27;45261;-76
2023/02/21 10:54:22;;;;;;;;;36.00;34.00;;;;;11.07;67.95;101061.00;5076150;28;45181;-78
2023/02/21 10:56:49;;;;;;;;;43.50;38.00;;;;;11.08;67.82;101045.13;5075917;28;45406;-70
2023/02/21 10:59:22;;;;;;;;;40.50;35.75;;;;;11.22;67.47;101060.44;5076720;28;45445;-75
2023/02/21 11:01:48;;;;;;;;;37.00;34.25;;;;;11.30;67.08;101064.59;5076119;27;45595;-70
2023/02/21 11:04:19;;;;;;;;;44.75;38.25;;;;;11.37;67.40;101059.06;5076197;28;45370;-72
2023/02/21 11:06:56;;;;;;;;;38.75;35.50;;;;;11.49;66.85;101063.00;5077830;27;45262;-78
2023/02/21 11:09:38;;;;;;;;;39.75;35.75;;;;;11.58;66.11;101064.47;5058981;28;45491;-77
2023/02/21 11:12:05;;;;;;;;;38.75;34.25;;;;;11.64;65.75;101051.06;5058021;28;46564;-74
2023/02/21 11:14:32;;;;;;;;;47.00;41.00;;;;;11.72;65.92;101050.78;5076048;27;45389;-70
2023/02/21 11:17:06;;;;;;;;;43.00;37.75;;;;;11.83;65.69;101045.09;5075170;28;45439;-74
2023/02/21 11:19:56;;;;;;;;;38.00;34.50;;;;;11.95;65.46;101049.06;5076683;27;45437;-72
2023/02/21 11:22:23;;;;;;;;;39.25;34.25;;;;;12.05;64.95;101039.91;5077488;27;45995;-72
2023/02/21 11:25:17;;;;;;;;;40.75;36.25;;;;;12.19;64.56;101030.59;5076078;27;45303;-69
2023/02/21 11:27:44;;;;;;;;;42.00;36.25;;;;;12.31;63.92;101027.44;5046395;27;45536;-73
2023/02/21 11:30:21;;;;;;;;;45.25;39.00;;;;;12.42;63.76;101025.22;5076214;28;45269;-70
2023/02/21 11:32:54;;;;;;;;;60.25;48.75;;;;;12.48;63.49;101010.06;5076546;27;47236;-69
2023/02/21 11:35:19;;;;;;;;;52.50;45.00;;;;;12.65;63.30;101017.28;5076869;28;45324;-72
2023/02/21 11:37:56;;;;;;;;;47.75;41.25;;;;;12.75;63.34;101009.84;5078547;27;45322;-69
2023/02/21 11:40:26;;;;;;;;;46.50;40.00;;;;;12.79;62.86;100998.25;5079179;28;45256;-74
2023/02/21 11:43:17;;;;;;;;;47.75;41.00;;;;;12.84;62.72;100993.63;5078406;28;47533;-70
2023/02/21 11:45:54;;;;;;;;;45.00;37.75;;;;;12.95;62.18;100995.78;5060494;28;45478;-68
2023/02/21 11:48:29;;;;;;;;;56.75;47.00;;;;;13.04;62.15;100987.47;5078023;28;45523;-68
2023/02/21 11:50:57;;;;;;;;;40.25;36.25;;;;;13.16;61.73;100980.78;5076175;28;45324;-71
2023/02/21 11:53:30;;;;;;;;;43.25;36.00;;;;;13.29;61.28;100978.47;5075378;27;46477;-70
2023/02/21 11:56:41;;;;;;;;;41.00;36.25;;;;;13.40;61.35;100978.81;5074792;28;45318;-70
2023/02/21 11:59:21;;;;;;;;;46.25;40.00;;;;;13.50;60.84;100965.22;5038038;28;45298;-69
2023/02/21 12:02:24;;;;;;;;;47.50;39.75;;;;;13.65;60.54;100958.34;5057863;28;45437;-70
2023/02/21 12:05:09;;;;;;;;;41.75;36.75;;;;;13.77;59.88;100947.19;5075835;28;46109;-70
2023/02/21 12:07:49;;;;;;;;;44.00;38.25;;;;;13.90;59.92;100955.41;5075098;28;45411;-71
2023/02/21 12:10:36;;;;;;;;;35.50;33.00;;;;;13.99;59.30;100943.53;5075069;27;45425;-69
2023/02/21 12:13:39;;;;;;;;;64.00;52.50;;;;;14.09;58.66;100939.50;5075374;28;45365;-73
2023/02/21 12:16:21;;;;;;;;;65.50;54.00;;;;;13.95;58.34;100907.59;5075222;27;45406;-72
2023/02/21 12:19:27;;;;;;;;;62.00;51.25;;;;;14.17;57.75;100926.75;5075655;27;45273;-74
2023/02/21 12:22:27;;;;;;;;;65.75;52.00;;;;;14.24;57.80;100927.28;5075716;28;45386;-74
2023/02/21 12:24:56;;;;;;;;;60.50;50.25;;;;;14.34;57.04;100924.19;5076309;27;45455;-71
2023/02/21 12:27:42;;;;;;;;;61.25;50.50;;;;;14.43;57.54;100921.91;5076056;28;46527;-71
2023/02/21 12:30:18;;;;;;;;;63.25;51.50;;;;;14.54;57.11;100917.88;5079520;27;45181;-68
2023/02/21 12:32:58;;;;;;;;;65.25;53.00;;;;;14.60;57.23;100914.91;5078487;28;45418;-72
2023/02/21 12:36:19;;;;;;;;;64.25;52.25;;;;;14.71;56.73;100909.94;5078600;27;45426;-70
2023/02/21 12:38:50;;;;;;;;;68.00;58.33;;;;;14.86;56.12;100902.97;4996718;28;47493;-73
2023/02/21 12:41:46;;;;;;;;;71.00;61.00;;;;;14.93;56.06;100898.22;5069895;27;45440;-70
2023/02/21 12:44:15;;;;;;;;;60.75;50.00;;;;;14.97;55.62;100891.84;5081599;28;45429;-72
2023/02/21 12:47:02;;;;;;;;;59.75;48.75;;;;;15.01;56.04;100885.44;5060780;28;45265;-71
2023/02/21 12:49:46;;;;;;;;;64.75;52.25;;;;;15.07;55.57;100870.97;5083613;27;45958;-73
2023/02/21 12:52:13;;;;;;;;;62.25;50.50;;;;;15.09;55.38;100865.59;5079074;28;45302;-72
2023/02/21 12:54:46;;;;;;;;;70.67;62.00;;;;;15.10;55.63;100859.38;5078991;28;46039;-74
2023/02/21 12:57:26;;;;;;;;;62.50;51.25;;;;;15.18;55.34;100863.28;5060596;28;45493;-74
2023/02/21 13:00:06;;;;;;;;;63.00;52.25;;;;;15.16;54.92;100851.94;5060024;28;46128;-75
2023/02/21 13:02:43;;;;;;;;;60.75;50.00;;;;;15.07;55.21;100836.53;5078187;27;45363;-73
2023/02/21 13:05:16;;;;;;;;;59.00;49.25;;;;;15.09;54.63;100841.75;5077378;28;45266;-72
2023/02/21 13:07:52;;;;;;;;;57.50;48.00;;;;;15.02;54.91;100834.16;5077549;27;45231;-69
2023/02/21 13:10:25;;;;;;;;;58.25;48.25;;;;;14.99;54.48;100828.16;5077514;27;45447;-70
2023/02/21 13:13:12;;;;;;;;;57.00;47.75;;;;;15.03;54.99;100827.91;5059734;28;45327;-73
2023/02/21 13:15:41;;;;;;;;;57.75;48.00;;;;;15.04;54.98;100820.81;5078533;27;45351;-73
2023/02/21 13:18:15;;;;;;;;;59.00;48.00;;;;;14.88;54.62;100799.63;5079055;27;45537;-69
2023/02/21 13:20:48;;;;;;;;;63.25;51.50;;;;;15.03;54.96;100827.91;5078009;27;46303;-70
2023/02/21 13:26:43;;;;;;;;;56.75;47.25;;;;;15.05;54.44;100817.22;5078356;28;45230;-68
2023/02/21 13:29:25;;;;;;;;;55.00;46.00;;;;;15.03;54.37;100808.50;5078449;27;45411;-71
2023/02/21 13:32:12;;;;;;;;;56.75;47.75;;;;;15.05;54.77;100803.97;5077859;27;45363;-70
2023/02/21 13:34:41;;;;;;;;;55.00;45.00;;;;;15.07;54.19;100802.09;5079020;27;45425;-72
2023/02/21 13:37:18;;;;;;;;;50.25;42.25;;;;;15.10;54.20;100793.13;5079391;27;45235;-69
2023/02/21 13:39:50;;;;;;;;;53.50;45.00;;;;;15.11;54.16;100790.38;5077577;28;45307;-71
2023/02/21 13:42:19;;;;;;;;;48.00;41.25;;;;;15.14;54.38;100781.44;5060493;28;48045;-71
2023/02/21 13:44:52;;;;;;;;;49.00;42.00;;;;;15.19;53.93;100777.56;5060388;28;45479;-72
2023/02/21 13:47:20;;;;;;;;;45.00;39.00;;;;;15.21;53.75;100782.78;5061020;28;45379;-71
2023/02/21 13:49:56;;;;;;;;;43.00;38.00;;;;;15.22;53.36;100781.84;5078394;28;46157;-73
2023/02/21 13:52:35;;;;;;;;;43.50;38.00;;;;;15.28;53.42;100776.19;5077819;27;47389;-74